createdAt,value
2023-04-22T00:02:31.914Z,10.7
2023-04-22T00:07:28.561Z,10.7
2023-04-22T00:13:39.116Z,10.7
2023-04-22T00:18:35.754Z,10.6
2023-04-22T00:23:32.074Z,10.4
2023-04-22T00:28:28.682Z,10.3
2023-04-22T00:34:39.516Z,10.4
2023-04-22T00:39:35.989Z,10.5
2023-04-22T00:44:32.404Z,10.4
2023-04-22T00:49:28.954Z,10.4
2023-04-22T00:54:25.648Z,10.6
2023-04-22T01:00:36.358Z,10.7
2023-04-22T01:05:32.790Z,10.7
2023-04-22T01:10:29.360Z,10.9
2023-04-22T01:15:25.951Z,10.8
2023-04-22T01:21:36.397Z,10.9
2023-04-22T01:26:33.194Z,10.9
2023-04-22T01:31:29.677Z,11
2023-04-22T01:36:26.119Z,11
2023-04-22T01:42:36.938Z,11
2023-04-22T01:47:33.366Z,10.9
2023-04-22T01:52:29.936Z,10.9
2023-04-22T01:57:26.436Z,11
2023-04-22T02:03:37.046Z,10.9
2023-04-22T02:08:33.476Z,11
2023-04-22T02:13:30.332Z,11.1
2023-04-22T02:18:26.502Z,11
2023-04-22T02:24:37.244Z,11
2023-04-22T02:29:33.972Z,10.9
2023-04-22T02:34:30.377Z,10.9
2023-04-22T02:39:27.002Z,10.9
2023-04-22T02:45:37.515Z,10.9
2023-04-22T02:50:34.024Z,10.9
2023-04-22T02:55:30.567Z,10.9
2023-04-22T03:06:38.882Z,11
2023-04-22T03:11:34.513Z,10.8
2023-04-22T03:16:30.934Z,10.7
2023-04-22T03:21:27.414Z,10.8
2023-04-22T03:27:38.089Z,10.8
2023-04-22T03:32:34.749Z,10.7
2023-04-22T03:37:31.057Z,10.7
2023-04-22T03:42:27.609Z,10.7
2023-04-22T03:48:38.351Z,10.6
2023-04-22T03:53:35.060Z,10.6
2023-04-22T03:58:31.351Z,10.6
2023-04-22T04:03:29.522Z,10.6
2023-04-22T04:09:38.769Z,10.6
2023-04-22T04:14:35.296Z,10.7
2023-04-22T04:19:31.596Z,10.6
2023-04-22T04:24:28.173Z,10.5
2023-04-22T04:30:38.724Z,10.7
2023-04-22T04:35:35.375Z,10.7
2023-04-22T04:40:31.758Z,10.7
2023-04-22T04:45:28.305Z,10.8
2023-04-22T04:51:38.976Z,10.9
2023-04-22T04:56:35.634Z,11
2023-04-22T05:01:32.418Z,11
2023-04-22T05:06:28.636Z,11.1
2023-04-22T05:11:33.388Z,11.2
2023-04-22T05:16:30.388Z,11.3
2023-04-22T05:21:26.407Z,11.3
2023-04-22T05:27:37.076Z,11.6
2023-04-22T05:32:33.919Z,11.6
2023-04-22T05:37:30.508Z,11.9
2023-04-22T05:42:26.838Z,11.9
2023-04-22T05:48:37.453Z,12.5
2023-04-22T05:53:33.887Z,12.6
2023-04-22T05:58:30.581Z,12.7
2023-04-22T06:03:27.236Z,12.9
2023-04-22T06:09:37.933Z,13.1
2023-04-22T06:14:34.326Z,13
2023-04-22T06:19:30.778Z,13
2023-04-22T06:24:27.304Z,12.9
2023-04-22T06:30:37.913Z,13.2
2023-04-22T06:35:34.564Z,13.3
2023-04-22T06:40:30.918Z,13.4
2023-04-22T06:45:27.535Z,13.3
2023-04-22T06:51:38.182Z,13.4
2023-04-22T06:56:34.889Z,13.5
2023-04-22T07:01:31.337Z,14.2
2023-04-22T07:06:27.774Z,14.6
2023-04-22T07:12:38.356Z,14.6
2023-04-22T07:17:34.960Z,15.2
2023-04-22T07:22:31.382Z,15.5
2023-04-22T07:27:28.136Z,15.6
2023-04-22T07:32:24.721Z,16
2023-04-22T07:38:35.346Z,16.2
2023-04-22T07:43:31.510Z,16.7
2023-04-22T07:48:28.460Z,16.6
2023-04-22T07:54:38.888Z,16.8
2023-04-22T07:59:35.594Z,16.9
2023-04-22T08:04:32.149Z,17.1
2023-04-22T08:09:28.597Z,17.8
2023-04-22T08:15:39.269Z,17.7
2023-04-22T08:20:35.842Z,18.3
2023-04-22T08:25:32.301Z,18.2
2023-04-22T08:30:29.201Z,18.6
2023-04-22T08:35:25.514Z,19
2023-04-22T08:41:36.192Z,19.1
2023-04-22T08:46:32.678Z,18.9
2023-04-22T08:51:29.267Z,19.3
2023-04-22T08:56:25.733Z,18.8
2023-04-22T09:02:36.443Z,19.1
2023-04-22T09:12:29.573Z,18.9
2023-04-22T09:17:26.076Z,18.9
2023-04-22T09:23:36.536Z,18.9
2023-04-22T09:28:33.188Z,18.9
2023-04-22T09:33:29.837Z,18.7
2023-04-22T09:44:36.814Z,19.2
2023-04-22T09:49:33.633Z,19.1
2023-04-22T09:54:30.391Z,19.5
2023-04-22T09:59:26.481Z,19.6
2023-04-22T10:05:36.969Z,19.3
2023-04-22T10:10:33.887Z,19.9
2023-04-22T10:15:30.740Z,21
2023-04-22T10:20:32.000Z,21.3
2023-04-22T10:26:37.441Z,21.9
2023-04-22T10:31:34.089Z,20.3
2023-04-22T10:36:30.828Z,20.8
2023-04-22T10:41:27.224Z,21.4
2023-04-22T10:47:37.836Z,21.5
2023-04-22T10:52:34.365Z,20.9
2023-04-22T10:57:30.996Z,21.3
2023-04-22T11:02:27.562Z,20.6
2023-04-22T11:08:38.030Z,21.3
2023-04-22T11:13:34.512Z,22.2
2023-04-22T11:18:31.372Z,22.8
2023-04-22T11:23:27.522Z,22.9
2023-04-22T11:29:38.399Z,22.1
2023-04-22T11:34:35.065Z,23.2
2023-04-22T11:39:31.372Z,22.7
2023-04-22T11:44:27.863Z,22
2023-04-22T11:50:38.504Z,21.7
2023-04-22T11:55:35.076Z,21.5
2023-04-22T12:00:31.662Z,21.6
2023-04-22T12:05:28.238Z,22.1
2023-04-22T12:11:38.846Z,21.7
2023-04-22T12:16:35.566Z,22.5
2023-04-22T12:21:31.859Z,23.5
2023-04-22T12:26:28.310Z,24.8
2023-04-22T12:31:25.090Z,23.5
2023-04-22T12:33:53.092Z,23
2023-04-22T12:37:35.551Z,22.2
2023-04-22T12:42:32.105Z,22.9
2023-04-22T12:47:28.619Z,23.6
2023-04-22T12:53:39.212Z,24.4
2023-04-22T12:58:35.794Z,23.5
2023-04-22T13:03:32.453Z,21.5
2023-04-22T13:08:28.899Z,21.3
2023-04-22T13:13:25.541Z,20.5
2023-04-22T13:19:36.142Z,20.5
2023-04-22T13:24:32.561Z,20
2023-04-22T13:29:29.318Z,20.2
2023-04-22T13:34:26.785Z,20.4
2023-04-22T13:40:36.288Z,20.5
2023-04-22T13:50:29.386Z,20
2023-04-22T13:55:26.427Z,19.8
2023-04-22T14:01:36.751Z,19.5
2023-04-22T14:06:33.143Z,18.9
2023-04-22T14:11:30.102Z,18.5
2023-04-22T14:22:36.810Z,17.7
2023-04-22T14:27:34.838Z,17.5
2023-04-22T14:32:35.180Z,17.6
2023-04-22T14:37:26.488Z,17.8
2023-04-22T14:43:37.119Z,17.8
2023-04-22T14:48:33.678Z,18
2023-04-22T14:53:30.800Z,18.4
2023-04-22T14:58:26.718Z,19.1
2023-04-22T15:04:37.459Z,20
2023-04-22T15:09:34.178Z,20.2
2023-04-22T15:14:35.748Z,20
2023-04-22T15:19:26.978Z,19.5
2023-04-22T15:25:37.669Z,19
2023-04-22T15:30:34.332Z,18.8
2023-04-22T15:34:16.738Z,18.7
2023-04-22T15:35:30.825Z,18.8
2023-04-22T15:46:38.024Z,18.5
2023-04-22T15:51:34.528Z,18.4
2023-04-22T15:56:31.298Z,18.5
2023-04-22T16:01:27.576Z,18.3
2023-04-22T16:07:37.983Z,18.2
2023-04-22T16:12:34.731Z,18
2023-04-22T16:17:31.021Z,17.8
2023-04-22T16:22:27.572Z,17.3
2023-04-22T16:28:38.215Z,17
2023-04-22T16:33:34.818Z,16.9
2023-04-22T16:38:31.246Z,16.8
2023-04-22T16:43:27.848Z,16.6
2023-04-22T16:49:38.923Z,16
2023-04-22T16:54:35.089Z,15.9
2023-04-22T16:59:31.522Z,16
2023-04-22T17:04:28.272Z,16.1
2023-04-22T17:10:38.692Z,16.1
2023-04-22T17:15:35.306Z,16
2023-04-22T17:20:31.742Z,15.9
2023-04-22T17:25:28.375Z,15.9
2023-04-22T17:31:39.241Z,15.8
2023-04-22T17:35:29.674Z,15
2023-04-22T17:40:26.080Z,14.4
2023-04-22T17:46:36.864Z,14.1
2023-04-22T17:51:33.314Z,14
2023-04-22T17:56:29.852Z,14.2
2023-04-22T18:01:26.379Z,14.1
2023-04-22T18:07:37.075Z,14.1
2023-04-22T18:12:33.599Z,14
2023-04-22T18:17:30.244Z,14.1
2023-04-22T18:22:26.698Z,14
2023-04-22T18:28:37.415Z,14.2
2023-04-22T18:33:33.881Z,14
2023-04-22T18:38:30.560Z,14
2023-04-22T18:49:37.636Z,14
2023-04-22T18:54:34.081Z,14
2023-04-22T18:59:30.814Z,14.3
2023-04-22T19:04:27.182Z,14.2
2023-04-22T19:10:37.834Z,14.1
2023-04-22T19:15:34.507Z,14.1
2023-04-22T19:20:31.086Z,14.1
2023-04-22T19:25:27.516Z,14.1
2023-04-22T19:31:38.255Z,14.2
2023-04-22T19:36:34.634Z,14.2
2023-04-22T19:41:31.193Z,14.4
2023-04-22T19:46:27.818Z,14.3
2023-04-22T19:52:38.404Z,14.4
2023-04-22T19:57:35.020Z,14.3
2023-04-22T20:02:31.571Z,14.3
2023-04-22T20:07:28.004Z,14.3
2023-04-22T20:13:38.614Z,14.3
2023-04-22T20:18:35.195Z,14.3
2023-04-22T20:23:31.666Z,14.3
2023-04-22T20:28:28.405Z,14.1
2023-04-22T20:34:39.131Z,14.1
2023-04-22T20:39:35.494Z,14.2
2023-04-22T20:44:31.962Z,14
2023-04-22T20:49:28.593Z,14.1
2023-04-22T20:55:39.260Z,14.1
2023-04-22T21:00:35.725Z,14
2023-04-22T21:05:32.249Z,13.9
2023-04-22T21:10:28.856Z,14
2023-04-22T21:16:39.494Z,14.1
2023-04-22T21:21:35.989Z,14.2
2023-04-22T21:26:32.516Z,14
2023-04-22T21:31:29.086Z,13.4
2023-04-22T21:36:25.600Z,13.1
2023-04-22T21:42:36.245Z,12.9
2023-04-22T21:47:32.749Z,12.4
2023-04-22T21:52:29.348Z,12.3
2023-04-22T21:57:25.894Z,12.2
2023-04-22T22:03:36.701Z,12
2023-04-22T22:08:33.275Z,11.9
2023-04-22T22:13:29.625Z,11.7
2023-04-22T22:18:26.201Z,11.6
2023-04-22T22:24:36.800Z,11.4
2023-04-22T22:29:33.305Z,11.2
2023-04-22T22:34:30.070Z,11.1
2023-04-22T22:39:26.378Z,11.1
2023-04-22T22:45:37.149Z,11.2
2023-04-22T22:50:33.585Z,11.2
2023-04-22T22:55:30.239Z,11
2023-04-22T23:00:26.638Z,11
2023-04-22T23:06:37.270Z,11
2023-04-22T23:11:33.811Z,11
2023-04-22T23:16:30.341Z,11.1
2023-04-22T23:21:26.881Z,11
2023-04-22T23:27:37.582Z,11.2
2023-04-22T23:32:34.140Z,11.2
2023-04-22T23:37:30.837Z,11
2023-04-22T23:42:27.265Z,11.1
2023-04-22T23:48:37.821Z,10.9
2023-04-22T23:53:34.362Z,10.7
2023-04-22T23:58:30.998Z,10.7
